Time;durP1;ratioP1;P1;durP2;ratioP2;P2;SDS_P1;SDS_P2;PMS_P1;PMS_P2;Temp;Humidity;BMP_temperature;BMP_pressure;BME280_temperature;BME280_humidity;BME280_pressure;Samples;Min_cycle;Max_cycle;Signal;HPM_P1;HPM_P2
2021/07/22 00:01:53;;;;;;;2.00;1.90;;;25.90;47.30;;;;;;5067793;28;20055;-72
2021/07/22 00:04:20;;;;;;;1.75;1.65;;;25.90;47.30;;;;;;5070068;28;20071;-72
2021/07/22 00:06:47;;;;;;;1.63;1.52;;;25.90;47.30;;;;;;5070010;28;20128;-68
2021/07/22 00:09:15;;;;;;;1.70;1.60;;;25.90;47.30;;;;;;5069225;28;20084;-72
2021/07/22 00:11:44;;;;;;;2.10;1.90;;;25.90;47.30;;;;;;5051961;28;20048;-72
2021/07/22 00:14:11;;;;;;;1.73;1.60;;;25.90;47.40;;;;;;5069517;28;20056;-72
2021/07/22 00:16:38;;;;;;;2.25;2.05;;;25.90;47.30;;;;;;5069663;28;20045;-72
2021/07/22 00:19:06;;;;;;;1.80;1.70;;;25.90;47.30;;;;;;5069582;28;20095;-68
2021/07/22 00:21:34;;;;;;;2.20;2.00;;;25.90;47.40;;;;;;5069633;28;20100;-72
2021/07/22 00:24:01;;;;;;;1.67;1.58;;;25.90;47.30;;;;;;5069605;28;20910;-73
2021/07/22 00:26:28;;;;;;;1.60;1.50;;;25.90;47.30;;;;;;5069336;28;20049;-72
2021/07/22 00:28:57;;;;;;;1.52;1.42;;;25.90;47.30;;;;;;5069222;28;20135;-72
2021/07/22 00:31:24;;;;;;;1.90;1.77;;;25.90;47.30;;;;;;5068545;28;20048;-72
2021/07/22 00:33:52;;;;;;;1.70;1.60;;;25.90;47.30;;;;;;5067737;28;20051;-71
2021/07/22 00:36:19;;;;;;;2.00;1.80;;;25.90;47.40;;;;;;5069201;28;20144;-72
2021/07/22 00:38:49;;;;;;;1.85;1.75;;;25.90;47.40;;;;;;5069375;28;20052;-72
2021/07/22 00:41:16;;;;;;;1.90;1.80;;;25.90;47.40;;;;;;5068884;28;20044;-73
2021/07/22 00:43:43;;;;;;;1.70;1.60;;;25.80;47.40;;;;;;5068752;28;20746;-72
2021/07/22 00:46:11;;;;;;;1.88;1.77;;;25.90;47.50;;;;;;5051364;28;20044;-72
2021/07/22 00:48:38;;;;;;;1.83;1.73;;;25.80;47.40;;;;;;5068631;28;20500;-72
2021/07/22 00:51:05;;;;;;;2.75;1.83;;;25.80;47.40;;;;;;5067602;28;20048;-73
2021/07/22 00:53:36;;;;;;;1.95;1.83;;;25.80;47.50;;;;;;5068971;28;20052;-72
2021/07/22 00:56:04;;;;;;;1.88;1.67;;;25.80;47.50;;;;;;5068604;28;20133;-73
2021/07/22 00:58:32;;;;;;;2.08;1.85;;;25.80;47.50;;;;;;5068703;28;20105;-67
2021/07/22 01:00:59;;;;;;;1.83;1.73;;;25.80;47.60;;;;;;5068917;28;20113;-68
2021/07/22 01:03:27;;;;;;;2.10;1.90;;;25.80;47.50;;;;;;5069091;28;20538;-72
2021/07/22 01:05:54;;;;;;;1.48;1.40;;;25.80;47.60;;;;;;5067225;28;20464;-73
2021/07/22 01:08:22;;;;;;;1.70;1.60;;;25.80;48.20;;;;;;5069026;28;20051;-72
2021/07/22 01:10:49;;;;;;;1.70;1.60;;;25.80;47.60;;;;;;5068627;28;20053;-72
2021/07/22 01:13:16;;;;;;;1.90;1.80;;;25.70;47.60;;;;;;5067746;28;20468;-72
2021/07/22 01:15:43;;;;;;;2.03;1.63;;;25.80;47.60;;;;;;5068426;28;20127;-72
2021/07/22 01:18:10;;;;;;;2.25;2.05;;;25.80;47.60;;;;;;5069001;28;20053;-72
2021/07/22 01:20:38;;;;;;;1.80;1.70;;;25.80;47.70;;;;;;5066929;28;20471;-72
2021/07/22 01:23:06;;;;;;;1.88;1.70;;;25.80;47.70;;;;;;5068471;28;20080;-72
2021/07/22 01:25:33;;;;;;;1.90;1.80;;;25.80;47.70;;;;;;5068422;28;20127;-73
2021/07/22 01:28:00;;;;;;;1.60;1.50;;;25.70;47.60;;;;;;5068451;28;20457;-72
2021/07/22 01:30:27;;;;;;;1.73;1.52;;;25.70;47.70;;;;;;5066763;28;20132;-72
2021/07/22 01:32:55;;;;;;;1.90;1.80;;;25.70;47.70;;;;;;5067994;28;20048;-72
2021/07/22 01:35:22;;;;;;;1.88;1.77;;;25.70;47.70;;;;;;5067862;28;20071;-73
2021/07/22 01:37:50;;;;;;;1.77;1.67;;;25.70;47.70;;;;;;5067088;28;20055;-68
2021/07/22 01:40:18;;;;;;;2.17;2.08;;;25.70;47.70;;;;;;5068023;28;20141;-72
2021/07/22 01:42:45;;;;;;;1.90;1.80;;;25.70;47.70;;;;;;5068233;28;20080;-68
2021/07/22 01:45:13;;;;;;;2.30;2.10;;;25.70;47.70;;;;;;5068182;28;20162;-72
2021/07/22 01:47:41;;;;;;;1.90;1.80;;;25.70;47.70;;;;;;5067743;28;20048;-72
2021/07/22 01:50:09;;;;;;;1.75;1.65;;;25.70;47.70;;;;;;5066765;28;20496;-72
2021/07/22 01:52:37;;;;;;;1.83;1.60;;;25.70;47.70;;;;;;5068349;28;20052;-71
2021/07/22 01:55:04;;;;;;;1.75;1.65;;;25.70;47.70;;;;;;5067712;28;20091;-68
2021/07/22 01:57:32;;;;;;;1.90;1.80;;;25.70;47.70;;;;;;5066457;28;20500;-72
2021/07/22 02:00:04;;;;;;;1.40;1.30;;;25.70;47.70;;;;;;5067721;28;20155;-72
2021/07/22 02:02:32;;;;;;;1.80;1.63;;;25.70;47.70;;;;;;5067663;28;20086;-72
2021/07/22 02:04:59;;;;;;;1.60;1.50;;;25.70;47.70;;;;;;5067492;28;20051;-68
2021/07/22 02:07:27;;;;;;;1.52;1.42;;;25.70;47.70;;;;;;5067513;28;20098;-68
2021/07/22 02:09:54;;;;;;;1.58;1.48;;;25.70;47.70;;;;;;5068230;28;20052;-68
2021/07/22 02:12:21;;;;;;;2.03;1.92;;;25.70;47.70;;;;;;5067862;28;20084;-72
2021/07/22 02:14:50;;;;;;;1.92;1.83;;;25.70;47.70;;;;;;5067520;28;20098;-68
2021/07/22 02:17:19;;;;;;;1.75;1.65;;;25.70;47.70;;;;;;5067285;28;20145;-68
2021/07/22 02:19:47;;;;;;;1.73;1.60;;;25.70;47.80;;;;;;5067896;28;20512;-72
2021/07/22 02:22:16;;;;;;;2.63;1.90;;;25.70;47.80;;;;;;5066339;28;20259;-72
2021/07/22 02:24:43;;;;;;;1.77;1.67;;;25.70;47.80;;;;;;5069099;28;20048;-72
2021/07/22 02:27:10;;;;;;;1.90;1.70;;;25.70;47.80;;;;;;5053882;28;20416;-73
2021/07/22 02:29:38;;;;;;;1.35;1.25;;;25.70;47.90;;;;;;5072090;28;20049;-72
2021/07/22 02:32:06;;;;;;;1.77;1.67;;;25.70;47.90;;;;;;5071310;28;20101;-72
2021/07/22 02:34:33;;;;;;;1.23;1.23;;;25.70;47.90;;;;;;5071474;28;20056;-73
2021/07/22 02:37:00;;;;;;;1.92;1.70;;;25.70;47.90;;;;;;5071692;28;20083;-72
2021/07/22 02:39:28;;;;;;;1.70;1.60;;;25.70;47.90;;;;;;5071609;28;20045;-72
2021/07/22 02:41:55;;;;;;;1.70;1.60;;;25.70;47.90;;;;;;5071522;28;20086;-72
2021/07/22 02:44:22;;;;;;;1.77;1.55;;;25.70;47.90;;;;;;5070067;28;20068;-72
2021/07/22 02:46:49;;;;;;;1.52;1.42;;;25.70;47.90;;;;;;5071104;28;20129;-72
2021/07/22 02:49:16;;;;;;;1.52;1.42;;;25.70;47.90;;;;;;5071427;28;20148;-72
2021/07/22 02:51:44;;;;;;;1.48;1.38;;;25.70;47.90;;;;;;5070974;28;20114;-72
2021/07/22 02:54:12;;;;;;;1.30;1.30;;;25.70;47.90;;;;;;5071526;28;20240;-72
2021/07/22 02:56:40;;;;;;;2.00;1.90;;;25.70;47.90;;;;;;5070795;28;20040;-72
2021/07/22 02:59:07;;;;;;;1.88;1.63;;;25.60;47.90;;;;;;5071060;28;20242;-68
2021/07/22 03:01:34;;;;;;;1.55;1.45;;;25.60;47.90;;;;;;5070826;28;20052;-72
2021/07/22 03:04:02;;;;;;;1.60;1.50;;;25.70;48.00;;;;;;5071648;28;20102;-72
2021/07/22 03:06:29;;;;;;;2.17;1.90;;;25.70;48.00;;;;;;5070684;28;20098;-72
2021/07/22 03:08:57;;;;;;;1.48;1.38;;;25.70;48.00;;;;;;5071136;28;20131;-72
2021/07/22 03:11:24;;;;;;;1.73;1.63;;;25.70;48.00;;;;;;5071419;28;20098;-72
2021/07/22 03:13:51;;;;;;;1.25;1.23;;;25.70;48.00;;;;;;5070622;28;20052;-69
2021/07/22 03:16:18;;;;;;;1.52;1.42;;;25.60;48.00;;;;;;5070836;28;20072;-72
2021/07/22 03:18:46;;;;;;;1.90;1.80;;;25.60;48.00;;;;;;5070865;28;20472;-68
2021/07/22 03:21:13;;;;;;;1.80;1.70;;;25.60;48.00;;;;;;5070349;28;20131;-72
2021/07/22 03:23:40;;;;;;;1.70;1.60;;;25.60;48.00;;;;;;5070572;28;20079;-72
2021/07/22 03:26:07;;;;;;;1.60;1.50;;;25.70;48.00;;;;;;5070185;28;20127;-72
2021/07/22 03:28:34;;;;;;;2.25;1.90;;;25.70;48.00;;;;;;5070602;28;20049;-72
2021/07/22 03:31:01;;;;;;;2.10;1.77;;;25.70;48.00;;;;;;5070567;28;20080;-72
2021/07/22 03:33:29;;;;;;;1.88;1.77;;;25.70;48.00;;;;;;5070305;28;20048;-72
2021/07/22 03:35:56;;;;;;;1.55;1.45;;;25.70;48.00;;;;;;5069485;28;20053;-72
2021/07/22 03:38:23;;;;;;;1.55;1.45;;;25.70;47.90;;;;;;5069939;28;20139;-72
2021/07/22 03:40:50;;;;;;;1.70;1.60;;;25.70;47.90;;;;;;5070141;28;20571;-72
2021/07/22 03:43:17;;;;;;;2.60;1.85;;;25.70;47.90;;;;;;5070194;28;20144;-72
2021/07/22 03:45:45;;;;;;;1.70;1.60;;;25.70;47.90;;;;;;5070278;28;20544;-72
2021/07/22 03:48:15;;;;;;;1.90;1.67;;;25.70;47.90;;;;;;5070349;28;20040;-68
2021/07/22 03:50:48;;;;;;;1.70;1.60;;;25.70;47.80;;;;;;5070121;28;20045;-72
2021/07/22 03:53:16;;;;;;;1.60;1.50;;;25.70;48.30;;;;;;5069836;28;20631;-68
2021/07/22 03:55:43;;;;;;;1.63;1.52;;;25.70;47.70;;;;;;5068204;28;20098;-72
2021/07/22 03:58:10;;;;;;;1.90;1.80;;;25.80;47.80;;;;;;5069826;28;20117;-73
2021/07/22 04:00:37;;;;;;;1.85;1.70;;;25.80;47.80;;;;;;5070328;28;20067;-72
2021/07/22 04:03:04;;;;;;;1.48;1.38;;;25.80;47.70;;;;;;5068567;28;20048;-73
2021/07/22 04:05:32;;;;;;;2.00;1.90;;;25.80;47.70;;;;;;5068673;28;20099;-73
2021/07/22 04:08:00;;;;;;;1.75;1.65;;;25.80;47.70;;;;;;5069391;28;20591;-72
2021/07/22 04:10:29;;;;;;;1.70;1.60;;;25.80;47.70;;;;;;5069931;28;20401;-72
2021/07/22 04:13:01;;;;;;;1.38;1.27;;;25.80;47.60;;;;;;5069304;28;20132;-68
2021/07/22 04:15:29;;;;;;;1.60;1.50;;;25.80;47.60;;;;;;5069751;28;20110;-68
2021/07/22 04:17:57;;;;;;;1.60;1.50;;;25.90;47.60;;;;;;5068947;28;20045;-72
2021/07/22 04:20:26;;;;;;;1.60;1.50;;;25.90;47.60;;;;;;5069780;28;20080;-73
2021/07/22 04:22:58;;;;;;;1.63;1.52;;;25.90;47.50;;;;;;5069256;28;20076;-72
2021/07/22 04:25:25;;;;;;;1.70;1.60;;;25.90;47.50;;;;;;5069918;28;20076;-73
2021/07/22 04:27:52;;;;;;;1.50;1.40;;;25.90;47.40;;;;;;5067764;28;20053;-72
2021/07/22 04:30:20;;;;;;;1.42;1.42;;;25.90;47.40;;;;;;5069668;28;20084;-72
2021/07/22 04:32:47;;;;;;;1.75;1.65;;;26.00;47.30;;;;;;5069401;28;20075;-73
2021/07/22 04:35:15;;;;;;;2.42;1.70;;;26.00;47.30;;;;;;5069218;28;20131;-72
2021/07/22 04:37:42;;;;;;;1.50;1.40;;;26.00;47.20;;;;;;5068388;28;20076;-73
2021/07/22 04:40:09;;;;;;;1.60;1.50;;;26.00;47.20;;;;;;5053238;28;20497;-73
2021/07/22 04:42:37;;;;;;;1.38;1.30;;;26.10;47.20;;;;;;5059093;28;20048;-72
2021/07/22 04:45:05;;;;;;;1.70;1.60;;;26.00;47.10;;;;;;5056546;28;20037;-73
2021/07/22 04:47:32;;;;;;;1.60;1.45;;;26.10;47.70;;;;;;5059719;28;20083;-73
2021/07/22 04:49:59;;;;;;;2.03;1.83;;;26.10;47.10;;;;;;5061108;28;20054;-68
2021/07/22 04:52:26;;;;;;;3.10;1.33;;;26.10;47.00;;;;;;5049735;28;20057;-68
2021/07/22 04:54:53;;;;;;;1.83;1.48;;;26.10;47.00;;;;;;5051224;28;20140;-73
2021/07/22 04:57:21;;;;;;;2.30;1.50;;;26.20;47.10;;;;;;5059225;28;20087;-69
2021/07/22 04:59:48;;;;;;;2.30;2.10;;;26.10;47.00;;;;;;5057822;28;20041;-68
2021/07/22 05:02:15;;;;;;;1.13;1.13;;;26.20;47.00;;;;;;5057882;28;20436;-73
2021/07/22 05:04:43;;;;;;;2.10;2.00;;;26.20;46.80;;;;;;5057073;28;20067;-74
2021/07/22 05:07:14;;;;;;;1.83;1.73;;;26.30;46.80;;;;;;5068283;28;20802;-73
2021/07/22 05:09:41;;;;;;;2.30;1.70;;;26.20;46.80;;;;;;5047746;28;20107;-73
2021/07/22 05:12:09;;;;;;;3.08;1.85;;;26.10;46.90;;;;;;5047435;28;20561;-74
2021/07/22 05:14:39;;;;;;;2.40;2.13;;;26.00;47.00;;;;;;5051425;28;20045;-73
2021/07/22 05:17:06;;;;;;;2.10;1.85;;;25.90;47.20;;;;;;5053297;28;20735;-69
2021/07/22 05:19:33;;;;;;;2.50;2.30;;;25.70;47.50;;;;;;5059631;28;20489;-73
2021/07/22 05:22:02;;;;;;;1.80;1.70;;;25.50;48.00;;;;;;5058598;28;20136;-73
2021/07/22 05:24:29;;;;;;;2.47;2.28;;;25.10;48.70;;;;;;5055278;28;20509;-69
2021/07/22 05:26:57;;;;;;;2.30;2.10;;;24.80;49.50;;;;;;5061592;28;20473;-73
2021/07/22 05:29:24;;;;;;;2.58;2.38;;;24.50;50.10;;;;;;5050626;28;20780;-73
2021/07/22 05:31:51;;;;;;;2.38;2.17;;;24.30;50.60;;;;;;5051352;28;20072;-68
2021/07/22 05:34:19;;;;;;;3.50;2.20;;;24.20;51.00;;;;;;5049248;28;20100;-72
2021/07/22 05:36:46;;;;;;;2.70;2.50;;;24.00;51.30;;;;;;5060029;28;20177;-72
2021/07/22 05:39:13;;;;;;;3.30;3.00;;;23.90;51.70;;;;;;5057069;28;20144;-72
2021/07/22 05:41:41;;;;;;;4.60;2.78;;;23.80;52.00;;;;;;5052954;28;20613;-67
2021/07/22 05:44:08;;;;;;;3.65;3.28;;;23.70;52.80;;;;;;5046888;28;20044;-68
2021/07/22 05:46:35;;;;;;;3.55;3.03;;;23.60;52.40;;;;;;5049550;28;20052;-68
2021/07/22 05:49:03;;;;;;;3.38;2.83;;;23.50;52.60;;;;;;5049232;28;20071;-69
2021/07/22 05:51:32;;;;;;;5.15;3.20;;;23.50;52.70;;;;;;5047287;28;20060;-67
2021/07/22 05:53:59;;;;;;;3.40;3.10;;;23.40;52.90;;;;;;5050542;28;20080;-68
2021/07/22 05:56:26;;;;;;;3.65;3.35;;;23.30;53.00;;;;;;5052154;28;20071;-68
2021/07/22 05:58:54;;;;;;;5.55;3.85;;;23.30;53.10;;;;;;5052577;28;20209;-68
2021/07/22 06:01:22;;;;;;;3.30;3.00;;;23.20;53.00;;;;;;5058256;28;20053;-73
2021/07/22 06:03:50;;;;;;;4.65;3.42;;;23.20;53.10;;;;;;5049961;28;20098;-68
2021/07/22 06:06:17;;;;;;;7.10;4.03;;;23.20;53.30;;;;;;5051708;28;20057;-72
2021/07/22 06:08:47;;;;;;;6.90;3.83;;;23.10;53.10;;;;;;5052163;28;20052;-73
2021/07/22 06:11:15;;;;;;;3.50;3.20;;;23.10;53.20;;;;;;5050193;28;20055;-68
2021/07/22 06:13:42;;;;;;;3.58;3.28;;;23.10;53.40;;;;;;5048795;28;20083;-68
2021/07/22 06:16:13;;;;;;;3.72;3.42;;;23.00;53.40;;;;;;5053609;28;20078;-67
2021/07/22 06:18:41;;;;;;;4.13;3.40;;;23.00;53.40;;;;;;5050221;28;20068;-68
2021/07/22 06:21:13;;;;;;;5.95;4.05;;;23.00;53.40;;;;;;5049137;28;20049;-67
2021/07/22 06:23:41;;;;;;;4.18;3.15;;;23.00;53.50;;;;;;5047854;28;20044;-68
2021/07/22 06:26:09;;;;;;;8.43;4.07;;;22.90;53.50;;;;;;5044580;28;20075;-68
2021/07/22 06:28:36;;;;;;;4.38;3.72;;;22.90;53.50;;;;;;5044939;28;20053;-68
2021/07/22 06:31:04;;;;;;;5.13;4.13;;;22.90;53.60;;;;;;5045688;28;20124;-73
2021/07/22 06:33:31;;;;;;;4.25;3.72;;;22.80;53.60;;;;;;5045477;28;20187;-68
2021/07/22 06:35:58;;;;;;;6.68;4.03;;;22.90;53.80;;;;;;5038400;28;20129;-68
2021/07/22 06:38:30;;;;;;;4.93;3.92;;;22.80;53.90;;;;;;5046344;28;20123;-69
2021/07/22 06:40:57;;;;;;;7.40;4.15;;;22.80;53.90;;;;;;5038475;28;20057;-69
2021/07/22 06:43:26;;;;;;;6.20;4.03;;;22.80;53.90;;;;;;5050536;28;20044;-68
2021/07/22 06:45:54;;;;;;;5.28;4.22;;;22.80;54.00;;;;;;5048487;28;20048;-69
2021/07/22 06:48:21;;;;;;;8.00;4.03;;;22.80;54.00;;;;;;5043715;28;20084;-69
2021/07/22 06:50:49;;;;;;;8.35;5.10;;;22.80;54.10;;;;;;5042788;28;20048;-69
2021/07/22 06:53:16;;;;;;;7.30;4.80;;;22.80;54.10;;;;;;5046645;28;20069;-69
2021/07/22 06:55:43;;;;;;;5.53;4.55;;;22.80;54.20;;;;;;5050327;28;20069;-68
2021/07/22 06:58:10;;;;;;;4.90;4.40;;;22.80;54.20;;;;;;5047201;28;20537;-68
2021/07/22 07:00:38;;;;;;;4.28;3.83;;;22.80;54.20;;;;;;5047309;28;20084;-68
2021/07/22 07:03:07;;;;;;;4.95;4.18;;;22.80;54.30;;;;;;5047307;28;20656;-68
2021/07/22 07:05:34;;;;;;;6.15;5.03;;;22.80;54.40;;;;;;5049648;28;20473;-67
2021/07/22 07:08:02;;;;;;;5.82;4.55;;;22.80;54.40;;;;;;5047810;28;20049;-67
2021/07/22 07:10:30;;;;;;;5.80;4.70;;;22.80;54.50;;;;;;5048911;28;20048;-69
2021/07/22 07:12:58;;;;;;;6.45;5.10;;;22.70;54.70;;;;;;5057258;28;20115;-69
2021/07/22 07:15:25;;;;;;;9.45;4.30;;;22.70;54.90;;;;;;5057640;28;20085;-67
2021/07/22 07:17:52;;;;;;;29.58;5.78;;;22.70;55.00;;;;;;5054286;28;20116;-65
2021/07/22 07:20:19;;;;;;;4.85;4.10;;;22.70;55.10;;;;;;5055331;28;20080;-64
2021/07/22 07:22:48;;;;;;;6.78;5.35;;;22.70;55.10;;;;;;5070219;28;20072;-72
2021/07/22 07:25:16;;;;;;;7.07;4.65;;;22.70;55.30;;;;;;5056145;28;20747;-67
2021/07/22 07:27:44;;;;;;;5.63;4.50;;;22.70;55.20;;;;;;5051875;28;20041;-62
2021/07/22 07:30:11;;;;;;;5.50;4.97;;;22.70;55.30;;;;;;5052129;28;20064;-70
2021/07/22 07:32:38;;;;;;;5.40;4.75;;;22.70;55.10;;;;;;5057027;28;20048;-69
2021/07/22 07:35:06;;;;;;;6.25;5.38;;;22.70;55.00;;;;;;5045602;28;20068;-65
2021/07/22 07:37:34;;;;;;;6.22;5.50;;;22.70;55.00;;;;;;5046861;28;20559;-66
2021/07/22 07:40:01;;;;;;;9.45;5.03;;;22.70;55.50;;;;;;5055821;28;20040;-70
2021/07/22 07:42:28;;;;;;;5.95;4.85;;;22.70;55.70;;;;;;5049915;28;20154;-69
2021/07/22 07:44:56;;;;;;;5.40;4.80;;;22.70;55.60;;;;;;5048436;28;20170;-69
2021/07/22 07:47:23;;;;;;;7.15;4.88;;;22.70;55.20;;;;;;5054744;28;20072;-69
2021/07/22 07:49:52;;;;;;;6.47;4.45;;;22.70;55.00;;;;;;5054088;28;20084;-67
2021/07/22 07:52:20;;;;;;;7.25;5.55;;;22.70;55.00;;;;;;5056966;28;21164;-67
2021/07/22 07:54:52;;;;;;;6.60;4.80;;;22.70;54.80;;;;;;5048049;28;20049;-67
2021/07/22 07:57:19;;;;;;;9.82;4.90;;;22.70;55.00;;;;;;5052046;28;20052;-67
2021/07/22 07:59:46;;;;;;;6.28;4.85;;;22.70;55.00;;;;;;5052685;28;20156;-67
2021/07/22 08:02:15;;;;;;;5.45;4.88;;;22.70;55.00;;;;;;5055955;28;20596;-63
2021/07/22 08:04:43;;;;;;;9.45;4.38;;;22.80;55.00;;;;;;5054458;28;20052;-64
2021/07/22 08:07:10;;;;;;;7.70;4.47;;;22.80;55.10;;;;;;5050986;28;20079;-65
2021/07/22 08:09:37;;;;;;;5.72;4.60;;;22.80;55.20;;;;;;5058215;28;20155;-63
2021/07/22 08:12:08;;;;;;;5.57;4.43;;;22.80;55.00;;;;;;5049760;28;20100;-63
2021/07/22 08:14:41;;;;;;;5.57;4.18;;;22.80;54.70;;;;;;5050638;28;20051;-63
2021/07/22 08:17:13;;;;;;;5.82;5.07;;;22.80;54.70;;;;;;5053909;28;20072;-62
2021/07/22 08:19:40;;;;;;;5.45;4.70;;;22.80;54.70;;;;;;5051047;28;20757;-66
2021/07/22 08:22:10;;;;;;;7.15;4.28;;;22.80;55.00;;;;;;5052468;28;20060;-64
2021/07/22 08:24:38;;;;;;;6.65;5.03;;;22.80;55.00;;;;;;5049669;28;20052;-64
2021/07/22 08:27:06;;;;;;;6.55;4.70;;;22.80;55.00;;;;;;5055845;28;20102;-63
2021/07/22 08:29:38;;;;;;;6.68;4.78;;;22.80;54.90;;;;;;5053580;28;20135;-61
2021/07/22 08:32:06;;;;;;;9.32;4.80;;;22.80;54.80;;;;;;5047557;28;20534;-65
2021/07/22 08:34:33;;;;;;;5.28;4.20;;;22.80;54.50;;;;;;5051359;28;20052;-65
2021/07/22 08:37:07;;;;;;;6.38;4.85;;;22.90;54.50;;;;;;5049969;28;20120;-60
2021/07/22 08:39:38;;;;;;;9.23;4.80;;;22.80;54.50;;;;;;5051072;28;20121;-62
2021/07/22 08:42:07;;;;;;;7.53;4.47;;;22.80;54.80;;;;;;5057497;28;20098;-68
2021/07/22 08:44:37;;;;;;;7.82;4.82;;;22.90;54.80;;;;;;5053020;28;20048;-61
2021/07/22 08:47:05;;;;;;;5.20;4.68;;;22.90;54.60;;;;;;5051243;28;20044;-63
2021/07/22 08:49:33;;;;;;;8.30;4.10;;;22.90;54.60;;;;;;5055462;28;20071;-64
2021/07/22 08:52:01;;;;;;;12.68;5.05;;;22.90;54.50;;;;;;5053310;28;20127;-68
2021/07/22 08:54:28;;;;;;;5.53;3.83;;;22.90;54.40;;;;;;5057000;28;20082;-62
2021/07/22 08:56:56;;;;;;;5.75;4.32;;;22.90;54.50;;;;;;5053287;28;20056;-61
2021/07/22 08:59:25;;;;;;;6.07;4.50;;;22.90;54.50;;;;;;5050342;28;21123;-62
2021/07/22 09:01:52;;;;;;;8.05;4.25;;;22.90;54.40;;;;;;5049044;28;20079;-63
2021/07/22 09:04:22;;;;;;;4.90;4.05;;;23.00;54.40;;;;;;5054149;28;20053;-65
2021/07/22 09:06:49;;;;;;;7.43;4.00;;;22.90;54.30;;;;;;5052642;28;20051;-61
2021/07/22 09:09:17;;;;;;;8.50;4.50;;;22.90;54.20;;;;;;5052469;28;20060;-61
2021/07/22 09:12:01;;;;;;;6.45;4.38;;;22.90;54.10;;;;;;5052051;28;20041;-62
2021/07/22 09:14:31;;;;;;;6.60;4.28;;;22.90;54.10;;;;;;5053068;28;20132;-64
2021/07/22 09:16:58;;;;;;;7.32;4.10;;;23.00;54.10;;;;;;5055692;28;20646;-65
2021/07/22 09:19:41;;;;;;;5.75;3.83;;;23.00;54.00;;;;;;5053694;28;20040;-68
2021/07/22 09:22:10;;;;;;;5.25;3.67;;;23.00;53.90;;;;;;5052999;28;20091;-66
2021/07/22 09:24:54;;;;;;;4.78;4.28;;;23.00;53.90;;;;;;5050112;28;20079;-67
2021/07/22 09:27:42;;;;;;;5.43;4.50;;;23.00;53.80;;;;;;5056965;28;20055;-68
2021/07/22 09:30:13;;;;;;;4.40;3.92;;;23.00;53.80;;;;;;5051706;28;20048;-67
2021/07/22 09:32:41;;;;;;;5.68;3.58;;;23.00;53.70;;;;;;5055302;28;20056;-67
2021/07/22 09:35:15;;;;;;;4.47;4.00;;;23.00;53.70;;;;;;5051898;28;20135;-68
2021/07/22 09:37:45;;;;;;;4.47;4.07;;;23.00;53.60;;;;;;5050175;28;20160;-61
2021/07/22 09:40:34;;;;;;;8.68;4.60;;;23.00;53.40;;;;;;5052267;28;20076;-62
2021/07/22 09:43:02;;;;;;;5.07;4.55;;;23.00;54.10;;;;;;5050561;28;20052;-72
2021/07/22 09:45:31;;;;;;;4.60;4.20;;;23.00;54.20;;;;;;5043034;28;20072;-65
2021/07/22 09:48:11;;;;;;;6.53;3.90;;;23.00;54.10;;;;;;5055238;28;20441;-66
2021/07/22 09:50:42;;;;;;;4.22;3.83;;;23.00;53.90;;;;;;5053011;28;20155;-68
2021/07/22 09:53:14;;;;;;;4.45;4.05;;;23.00;53.90;;;;;;5055875;28;20037;-72
2021/07/22 09:55:42;;;;;;;5.05;4.55;;;23.00;53.60;;;;;;5055091;28;20048;-66
2021/07/22 09:58:12;;;;;;;8.10;4.32;;;23.00;53.40;;;;;;5052673;28;20463;-65
2021/07/22 10:00:41;;;;;;;6.68;4.05;;;23.00;53.30;;;;;;5052977;28;20128;-66
2021/07/22 10:03:13;;;;;;;5.03;4.40;;;23.00;53.30;;;;;;5058112;28;20758;-68
2021/07/22 10:05:45;;;;;;;4.53;3.83;;;23.00;53.30;;;;;;5044295;28;20079;-68
2021/07/22 10:08:20;;;;;;;4.72;3.80;;;23.00;53.10;;;;;;5043800;28;20118;-67
2021/07/22 10:10:58;;;;;;;4.55;4.15;;;23.00;52.90;;;;;;5051686;28;20058;-67
2021/07/22 10:13:32;;;;;;;6.22;4.00;;;23.00;52.80;;;;;;5051762;28;20056;-68
2021/07/22 10:16:02;;;;;;;4.78;3.80;;;23.00;52.70;;;;;;5052351;28;20586;-67
2021/07/22 10:18:33;;;;;;;5.15;4.00;;;23.10;52.60;;;;;;5052860;28;20072;-67
2021/07/22 10:21:02;;;;;;;4.65;4.20;;;23.00;52.50;;;;;;5052017;28;20125;-71
2021/07/22 10:23:30;;;;;;;5.65;3.78;;;23.10;52.50;;;;;;5048330;28;20738;-71
2021/07/22 10:25:58;;;;;;;5.40;3.90;;;23.10;52.40;;;;;;5052149;28;20460;-67
2021/07/22 10:28:27;;;;;;;3.95;3.58;;;23.10;52.40;;;;;;5051222;28;20514;-67
2021/07/22 10:30:56;;;;;;;3.90;3.60;;;23.10;52.20;;;;;;5051917;28;20084;-65
2021/07/22 10:33:24;;;;;;;4.07;3.67;;;23.10;52.30;;;;;;5043219;28;20045;-66
2021/07/22 10:35:56;;;;;;;3.70;3.40;;;23.10;52.60;;;;;;5049605;28;20053;-68
2021/07/22 10:38:27;;;;;;;4.15;3.75;;;23.10;52.70;;;;;;5051283;28;20693;-62
2021/07/22 10:40:57;;;;;;;4.13;3.70;;;23.10;52.70;;;;;;5050175;28;21437;-66
2021/07/22 10:43:37;;;;;;;6.50;3.78;;;23.10;52.60;;;;;;5057257;28;20481;-70
2021/07/22 10:46:10;;;;;;;4.40;3.67;;;23.10;52.50;;;;;;5057034;28;20070;-70
2021/07/22 10:51:19;;;;;;;4.38;3.97;;;23.10;52.30;;;;;;5056622;28;20084;-64
2021/07/22 10:53:51;;;;;;;5.47;4.47;;;23.20;52.30;;;;;;5058103;28;20033;-61
2021/07/22 10:56:50;;;;;;;3.75;3.17;;;23.20;52.30;;;;;;5059785;28;20048;-60
2021/07/22 10:59:17;;;;;;;4.18;3.78;;;23.20;52.10;;;;;;5054733;28;20045;-68
2021/07/22 11:01:51;;;;;;;6.22;4.05;;;23.20;52.10;;;;;;5050922;28;20095;-62
2021/07/22 11:04:38;;;;;;;3.90;3.50;;;23.20;52.20;;;;;;5056879;28;20121;-69
2021/07/22 11:07:15;;;;;;;6.13;3.58;;;23.30;52.30;;;;;;5056044;28;20041;-73
2021/07/22 11:09:51;;;;;;;;;;;23.40;52.10;;;;;;5049957;28;20044;-64
2021/07/22 11:12:41;;;;;;;4.28;3.83;;;23.50;51.90;;;;;;5055530;28;19936;-61
2021/07/22 11:15:12;;;;;;;4.22;3.25;;;23.60;51.70;;;;;;5054350;28;21024;-65
2021/07/22 11:17:39;;;;;;;4.68;3.75;;;23.60;51.40;;;;;;5055278;28;20106;-64
2021/07/22 11:20:32;;;;;;;6.43;3.78;;;23.70;51.40;;;;;;5053432;28;20539;-65
2021/07/22 11:23:11;;;;;;;6.80;3.63;;;23.80;51.80;;;;;;5052784;28;20557;-65
2021/07/22 11:25:46;;;;;;;3.78;3.38;;;23.80;50.80;;;;;;5050582;28;20045;-64
2021/07/22 11:28:15;;;;;;;4.30;3.90;;;23.80;50.50;;;;;;5055572;28;20723;-65
2021/07/22 11:31:04;;;;;;;3.50;3.20;;;23.90;50.60;;;;;;5057395;28;20514;-69
2021/07/22 11:33:39;;;;;;;4.35;3.35;;;23.90;50.50;;;;;;5055748;28;20052;-62
2021/07/22 11:36:12;;;;;;;3.70;3.40;;;23.90;50.50;;;;;;5054528;28;20045;-62
2021/07/22 11:38:39;;;;;;;3.88;3.58;;;23.90;50.70;;;;;;5049933;28;20052;-61
2021/07/22 11:41:12;;;;;;;4.35;3.83;;;23.90;50.80;;;;;;5051916;28;20056;-60
2021/07/22 11:43:43;;;;;;;4.15;3.80;;;23.90;50.70;;;;;;5055308;28;20032;-55
2021/07/22 11:46:12;;;;;;;4.63;3.95;;;24.00;50.70;;;;;;5055683;28;20044;-62
2021/07/22 11:48:40;;;;;;;4.35;3.28;;;24.10;50.80;;;;;;5060032;28;20045;-67
2021/07/22 11:51:11;;;;;;;3.90;3.60;;;24.10;50.70;;;;;;5057517;28;20132;-61
2021/07/22 11:53:39;;;;;;;3.78;3.47;;;24.10;50.50;;;;;;5056281;28;20121;-62
2021/07/22 11:56:15;;;;;;;4.05;3.65;;;24.10;50.40;;;;;;5053593;28;20068;-65
2021/07/22 11:58:50;;;;;;;4.28;3.67;;;24.20;50.20;;;;;;5053376;28;20079;-68
2021/07/22 12:01:18;;;;;;;5.20;4.03;;;24.10;50.30;;;;;;5063313;28;20397;-68
2021/07/22 12:03:47;;;;;;;3.90;3.55;;;24.20;50.20;;;;;;5051316;28;20123;-62
2021/07/22 12:06:24;;;;;;;5.18;3.85;;;24.20;50.00;;;;;;5056691;28;20056;-65
2021/07/22 12:09:09;;;;;;;3.58;3.22;;;24.20;50.00;;;;;;5062620;28;20215;-62
2021/07/22 12:11:48;;;;;;;4.03;3.63;;;24.20;49.80;;;;;;5056998;28;20044;-66
2021/07/22 12:14:35;;;;;;;4.40;3.42;;;24.30;49.60;;;;;;5059387;28;20087;-60
2021/07/22 12:17:05;;;;;;;3.95;3.63;;;24.30;49.50;;;;;;5056398;28;20044;-61
2021/07/22 12:19:34;;;;;;;4.28;3.88;;;24.30;49.50;;;;;;5056426;28;20144;-66
2021/07/22 12:22:29;;;;;;;4.05;3.65;;;24.30;49.30;;;;;;5055651;28;20060;-62
2021/07/22 12:25:14;;;;;;;3.83;3.53;;;24.30;49.20;;;;;;5064327;28;20080;-63
2021/07/22 12:27:53;;;;;;;4.40;3.63;;;24.30;49.00;;;;;;5056056;28;20040;-63
2021/07/22 12:30:22;;;;;;;3.45;3.15;;;24.30;48.80;;;;;;5059023;28;20128;-63
2021/07/22 12:32:59;;;;;;;5.07;3.63;;;24.40;48.90;;;;;;5056639;28;20087;-65
2021/07/22 12:35:41;;;;;;;6.50;3.55;;;24.30;48.70;;;;;;5055036;28;20045;-64
2021/07/22 12:38:25;;;;;;;5.80;3.78;;;24.40;48.60;;;;;;5052894;28;20080;-63
2021/07/22 12:41:05;;;;;;;4.85;3.70;;;24.40;48.70;;;;;;5051390;28;20076;-65
2021/07/22 12:43:46;;;;;;;4.93;3.50;;;24.30;48.80;;;;;;5044321;28;20102;-65
2021/07/22 12:46:18;;;;;;;4.03;3.58;;;24.40;49.30;;;;;;5047759;28;20136;-61
2021/07/22 12:48:47;;;;;;;3.83;3.42;;;24.40;49.60;;;;;;5054129;28;20072;-63
2021/07/22 12:51:16;;;;;;;5.93;3.25;;;24.40;49.70;;;;;;5052914;28;20132;-61
2021/07/22 12:53:46;;;;;;;3.65;3.33;;;24.40;50.00;;;;;;5051946;28;20083;-61
2021/07/22 12:56:19;;;;;;;3.53;3.22;;;24.40;50.40;;;;;;5044944;28;21411;-61
2021/07/22 12:58:51;;;;;;;5.00;3.92;;;24.40;50.70;;;;;;5044230;28;20073;-61
2021/07/22 13:01:21;;;;;;;9.07;3.50;;;24.40;50.70;;;;;;5047259;28;20079;-60
2021/07/22 13:03:52;;;;;;;5.65;3.38;;;24.50;50.90;;;;;;5052952;28;20069;-60